sensor_id;sensor_type;location;lat;lon;timestamp;P1;durP1;ratioP1;P2;durP2;ratioP2
14768;SDS011;7476;49.404;11.152;2023-11-18T00:00:55;8.03;;;5.40;;
14768;SDS011;7476;49.404;11.152;2023-11-18T00:03:21;5.53;;;4.53;;
14768;SDS011;7476;49.404;11.152;2023-11-18T00:05:48;6.00;;;4.60;;
14768;SDS011;7476;49.404;11.152;2023-11-18T00:08:15;6.13;;;4.97;;
14768;SDS011;7476;49.404;11.152;2023-11-18T00:10:43;9.57;;;5.47;;
14768;SDS011;7476;49.404;11.152;2023-11-18T00:13:09;6.90;;;5.97;;
14768;SDS011;7476;49.404;11.152;2023-11-18T00:15:36;7.40;;;5.33;;
14768;SDS011;7476;49.404;11.152;2023-11-18T00:18:03;7.87;;;5.77;;
14768;SDS011;7476;49.404;11.152;2023-11-18T00:20:29;6.87;;;5.33;;
14768;SDS011;7476;49.404;11.152;2023-11-18T00:22:56;7.70;;;5.80;;
14768;SDS011;7476;49.404;11.152;2023-11-18T00:25:23;10.90;;;6.23;;
14768;SDS011;7476;49.404;11.152;2023-11-18T00:27:51;6.70;;;5.23;;
14768;SDS011;7476;49.404;11.152;2023-11-18T00:30:19;6.63;;;5.73;;
14768;SDS011;7476;49.404;11.152;2023-11-18T00:32:45;9.80;;;6.20;;
14768;SDS011;7476;49.404;11.152;2023-11-18T00:35:13;6.73;;;5.47;;
14768;SDS011;7476;49.404;11.152;2023-11-18T00:37:39;6.47;;;5.50;;
14768;SDS011;7476;49.404;11.152;2023-11-18T00:40:07;7.03;;;4.70;;
14768;SDS011;7476;49.404;11.152;2023-11-18T00:42:34;6.87;;;5.03;;
14768;SDS011;7476;49.404;11.152;2023-11-18T00:45:02;5.63;;;4.60;;
14768;SDS011;7476;49.404;11.152;2023-11-18T00:47:30;6.87;;;4.80;;
14768;SDS011;7476;49.404;11.152;2023-11-18T00:49:56;7.03;;;4.93;;
14768;SDS011;7476;49.404;11.152;2023-11-18T00:52:26;6.83;;;4.73;;
14768;SDS011;7476;49.404;11.152;2023-11-18T00:54:53;5.90;;;4.77;;
14768;SDS011;7476;49.404;11.152;2023-11-18T00:57:20;5.70;;;4.73;;
14768;SDS011;7476;49.404;11.152;2023-11-18T00:59:46;5.20;;;4.60;;
14768;SDS011;7476;49.404;11.152;2023-11-18T01:02:14;8.37;;;5.17;;
14768;SDS011;7476;49.404;11.152;2023-11-18T01:04:43;7.57;;;4.57;;
14768;SDS011;7476;49.404;11.152;2023-11-18T01:07:10;6.57;;;4.67;;
14768;SDS011;7476;49.404;11.152;2023-11-18T01:09:38;7.77;;;4.90;;
14768;SDS011;7476;49.404;11.152;2023-11-18T01:12:05;7.27;;;5.33;;
14768;SDS011;7476;49.404;11.152;2023-11-18T01:14:34;8.00;;;5.20;;
14768;SDS011;7476;49.404;11.152;2023-11-18T01:17:02;7.80;;;6.23;;
14768;SDS011;7476;49.404;11.152;2023-11-18T01:19:31;7.43;;;5.20;;
14768;SDS011;7476;49.404;11.152;2023-11-18T01:21:58;8.40;;;5.30;;
14768;SDS011;7476;49.404;11.152;2023-11-18T01:24:25;7.73;;;5.30;;
14768;SDS011;7476;49.404;11.152;2023-11-18T01:26:51;7.30;;;5.67;;
14768;SDS011;7476;49.404;11.152;2023-11-18T01:29:18;7.10;;;5.80;;
14768;SDS011;7476;49.404;11.152;2023-11-18T01:31:47;6.67;;;5.17;;
14768;SDS011;7476;49.404;11.152;2023-11-18T01:34:13;5.53;;;4.97;;
14768;SDS011;7476;49.404;11.152;2023-11-18T01:36:43;6.83;;;5.07;;
14768;SDS011;7476;49.404;11.152;2023-11-18T01:39:10;7.27;;;5.47;;
14768;SDS011;7476;49.404;11.152;2023-11-18T01:41:38;7.10;;;5.63;;
14768;SDS011;7476;49.404;11.152;2023-11-18T01:44:05;5.83;;;4.93;;
14768;SDS011;7476;49.404;11.152;2023-11-18T01:46:32;6.73;;;5.23;;
14768;SDS011;7476;49.404;11.152;2023-11-18T01:49:00;5.80;;;4.90;;
14768;SDS011;7476;49.404;11.152;2023-11-18T01:51:28;7.77;;;5.20;;
14768;SDS011;7476;49.404;11.152;2023-11-18T01:53:57;9.77;;;5.40;;
14768;SDS011;7476;49.404;11.152;2023-11-18T01:56:26;7.13;;;5.40;;
14768;SDS011;7476;49.404;11.152;2023-11-18T01:58:53;8.70;;;5.47;;
14768;SDS011;7476;49.404;11.152;2023-11-18T02:01:22;6.77;;;5.43;;
14768;SDS011;7476;49.404;11.152;2023-11-18T02:03:49;8.50;;;4.80;;
14768;SDS011;7476;49.404;11.152;2023-11-18T02:06:15;9.93;;;6.00;;
14768;SDS011;7476;49.404;11.152;2023-11-18T02:08:42;6.57;;;5.30;;
14768;SDS011;7476;49.404;11.152;2023-11-18T02:11:13;10.90;;;5.80;;
14768;SDS011;7476;49.404;11.152;2023-11-18T02:13:47;6.60;;;5.20;;
14768;SDS011;7476;49.404;11.152;2023-11-18T02:16:16;8.20;;;5.93;;
14768;SDS011;7476;49.404;11.152;2023-11-18T02:18:43;8.57;;;5.67;;
14768;SDS011;7476;49.404;11.152;2023-11-18T02:21:14;8.73;;;5.80;;
14768;SDS011;7476;49.404;11.152;2023-11-18T02:23:41;7.13;;;5.47;;
14768;SDS011;7476;49.404;11.152;2023-11-18T02:26:09;6.07;;;5.03;;
14768;SDS011;7476;49.404;11.152;2023-11-18T02:28:36;6.47;;;5.53;;
14768;SDS011;7476;49.404;11.152;2023-11-18T02:31:05;10.90;;;5.67;;
14768;SDS011;7476;49.404;11.152;2023-11-18T02:33:42;6.30;;;4.97;;
14768;SDS011;7476;49.404;11.152;2023-11-18T02:36:18;7.47;;;5.10;;
14768;SDS011;7476;49.404;11.152;2023-11-18T02:38:50;6.30;;;4.93;;
14768;SDS011;7476;49.404;11.152;2023-11-18T02:41:21;7.33;;;5.67;;
14768;SDS011;7476;49.404;11.152;2023-11-18T02:43:49;6.00;;;5.20;;
14768;SDS011;7476;49.404;11.152;2023-11-18T02:46:16;7.00;;;5.23;;
14768;SDS011;7476;49.404;11.152;2023-11-18T02:48:44;6.97;;;5.57;;
14768;SDS011;7476;49.404;11.152;2023-11-18T02:51:11;6.60;;;5.13;;
14768;SDS011;7476;49.404;11.152;2023-11-18T02:53:38;8.77;;;5.20;;
14768;SDS011;7476;49.404;11.152;2023-11-18T02:56:06;8.17;;;4.87;;
14768;SDS011;7476;49.404;11.152;2023-11-18T02:58:35;7.33;;;5.30;;
14768;SDS011;7476;49.404;11.152;2023-11-18T03:01:02;6.50;;;5.00;;
14768;SDS011;7476;49.404;11.152;2023-11-18T03:03:30;7.40;;;5.00;;
14768;SDS011;7476;49.404;11.152;2023-11-18T03:05:56;6.43;;;5.03;;
14768;SDS011;7476;49.404;11.152;2023-11-18T03:08:25;8.00;;;5.10;;
14768;SDS011;7476;49.404;11.152;2023-11-18T03:10:53;7.13;;;5.60;;
14768;SDS011;7476;49.404;11.152;2023-11-18T03:13:20;6.50;;;5.67;;
14768;SDS011;7476;49.404;11.152;2023-11-18T03:15:49;8.23;;;5.60;;
14768;SDS011;7476;49.404;11.152;2023-11-18T03:18:16;9.73;;;5.97;;
14768;SDS011;7476;49.404;11.152;2023-11-18T03:20:43;5.80;;;5.10;;
14768;SDS011;7476;49.404;11.152;2023-11-18T03:23:10;6.37;;;5.33;;
14768;SDS011;7476;49.404;11.152;2023-11-18T03:25:37;7.07;;;5.80;;
14768;SDS011;7476;49.404;11.152;2023-11-18T03:28:04;7.23;;;5.57;;
14768;SDS011;7476;49.404;11.152;2023-11-18T03:30:32;6.27;;;5.13;;
14768;SDS011;7476;49.404;11.152;2023-11-18T03:33:01;6.87;;;5.27;;
14768;SDS011;7476;49.404;11.152;2023-11-18T03:35:28;7.00;;;5.60;;
14768;SDS011;7476;49.404;11.152;2023-11-18T03:37:56;6.60;;;5.70;;
14768;SDS011;7476;49.404;11.152;2023-11-18T03:40:23;7.40;;;5.87;;
14768;SDS011;7476;49.404;11.152;2023-11-18T03:42:49;9.20;;;5.33;;
14768;SDS011;7476;49.404;11.152;2023-11-18T03:45:18;6.40;;;5.43;;
14768;SDS011;7476;49.404;11.152;2023-11-18T03:47:45;8.53;;;5.70;;
14768;SDS011;7476;49.404;11.152;2023-11-18T03:50:16;6.50;;;5.33;;
14768;SDS011;7476;49.404;11.152;2023-11-18T03:52:43;5.73;;;4.97;;
14768;SDS011;7476;49.404;11.152;2023-11-18T03:55:10;6.27;;;5.03;;
14768;SDS011;7476;49.404;11.152;2023-11-18T03:57:37;7.37;;;5.80;;
14768;SDS011;7476;49.404;11.152;2023-11-18T04:00:04;7.60;;;5.83;;
14768;SDS011;7476;49.404;11.152;2023-11-18T04:02:32;6.97;;;5.57;;
14768;SDS011;7476;49.404;11.152;2023-11-18T04:05:00;6.83;;;5.57;;
14768;SDS011;7476;49.404;11.152;2023-11-18T04:07:29;6.97;;;5.70;;
14768;SDS011;7476;49.404;11.152;2023-11-18T04:09:56;8.13;;;6.13;;
14768;SDS011;7476;49.404;11.152;2023-11-18T04:12:23;7.60;;;6.00;;
14768;SDS011;7476;49.404;11.152;2023-11-18T04:14:51;7.20;;;5.77;;
14768;SDS011;7476;49.404;11.152;2023-11-18T04:17:18;8.03;;;6.23;;
14768;SDS011;7476;49.404;11.152;2023-11-18T04:19:45;7.80;;;5.93;;
14768;SDS011;7476;49.404;11.152;2023-11-18T04:22:12;9.53;;;6.53;;
14768;SDS011;7476;49.404;11.152;2023-11-18T04:24:40;9.13;;;6.37;;
14768;SDS011;7476;49.404;11.152;2023-11-18T04:27:10;8.67;;;6.30;;
14768;SDS011;7476;49.404;11.152;2023-11-18T04:29:36;7.47;;;5.90;;
14768;SDS011;7476;49.404;11.152;2023-11-18T04:32:05;8.73;;;6.10;;
14768;SDS011;7476;49.404;11.152;2023-11-18T04:34:34;8.77;;;6.33;;
14768;SDS011;7476;49.404;11.152;2023-11-18T04:37:01;8.57;;;6.40;;
14768;SDS011;7476;49.404;11.152;2023-11-18T04:39:28;7.97;;;6.13;;
14768;SDS011;7476;49.404;11.152;2023-11-18T04:41:58;10.03;;;6.87;;
14768;SDS011;7476;49.404;11.152;2023-11-18T04:44:26;8.50;;;6.67;;
14768;SDS011;7476;49.404;11.152;2023-11-18T04:46:53;7.47;;;6.03;;
14768;SDS011;7476;49.404;11.152;2023-11-18T04:49:19;8.20;;;6.40;;
14768;SDS011;7476;49.404;11.152;2023-11-18T04:51:46;9.10;;;6.20;;
14768;SDS011;7476;49.404;11.152;2023-11-18T04:54:12;8.87;;;6.10;;
14768;SDS011;7476;49.404;11.152;2023-11-18T04:56:39;7.87;;;5.50;;
14768;SDS011;7476;49.404;11.152;2023-11-18T04:59:07;9.47;;;5.93;;
14768;SDS011;7476;49.404;11.152;2023-11-18T05:01:34;8.93;;;5.83;;
14768;SDS011;7476;49.404;11.152;2023-11-18T05:04:02;8.63;;;5.73;;
14768;SDS011;7476;49.404;11.152;2023-11-18T05:06:28;6.87;;;4.90;;
14768;SDS011;7476;49.404;11.152;2023-11-18T05:08:55;6.53;;;5.43;;
14768;SDS011;7476;49.404;11.152;2023-11-18T05:11:22;7.53;;;5.97;;
14768;SDS011;7476;49.404;11.152;2023-11-18T05:13:49;8.20;;;6.50;;
14768;SDS011;7476;49.404;11.152;2023-11-18T05:16:17;10.33;;;6.77;;
14768;SDS011;7476;49.404;11.152;2023-11-18T05:18:43;9.63;;;6.37;;
14768;SDS011;7476;49.404;11.152;2023-11-18T05:21:10;9.17;;;6.83;;
14768;SDS011;7476;49.404;11.152;2023-11-18T05:23:37;10.80;;;6.73;;
14768;SDS011;7476;49.404;11.152;2023-11-18T05:26:04;9.47;;;6.67;;
14768;SDS011;7476;49.404;11.152;2023-11-18T05:28:31;8.30;;;5.93;;
14768;SDS011;7476;49.404;11.152;2023-11-18T05:30:58;7.57;;;6.17;;
14768;SDS011;7476;49.404;11.152;2023-11-18T05:33:28;8.57;;;6.30;;
14768;SDS011;7476;49.404;11.152;2023-11-18T05:35:55;17.93;;;10.87;;
14768;SDS011;7476;49.404;11.152;2023-11-18T05:38:21;13.53;;;8.13;;
14768;SDS011;7476;49.404;11.152;2023-11-18T05:40:51;10.77;;;7.90;;
14768;SDS011;7476;49.404;11.152;2023-11-18T05:43:21;10.33;;;7.53;;
14768;SDS011;7476;49.404;11.152;2023-11-18T05:45:49;10.97;;;8.07;;
14768;SDS011;7476;49.404;11.152;2023-11-18T05:48:40;10.80;;;8.20;;
14768;SDS011;7476;49.404;11.152;2023-11-18T05:51:08;12.40;;;8.60;;
14768;SDS011;7476;49.404;11.152;2023-11-18T05:53:35;12.63;;;8.50;;
14768;SDS011;7476;49.404;11.152;2023-11-18T05:56:05;13.07;;;8.67;;
14768;SDS011;7476;49.404;11.152;2023-11-18T05:58:32;11.83;;;8.53;;
14768;SDS011;7476;49.404;11.152;2023-11-18T06:00:59;13.83;;;9.27;;
14768;SDS011;7476;49.404;11.152;2023-11-18T06:03:26;15.13;;;8.80;;
14768;SDS011;7476;49.404;11.152;2023-11-18T06:05:54;12.40;;;8.73;;
14768;SDS011;7476;49.404;11.152;2023-11-18T06:08:21;15.30;;;8.07;;
14768;SDS011;7476;49.404;11.152;2023-11-18T06:10:48;14.80;;;7.93;;
14768;SDS011;7476;49.404;11.152;2023-11-18T06:13:16;20.03;;;9.00;;
14768;SDS011;7476;49.404;11.152;2023-11-18T06:15:43;14.10;;;8.30;;
14768;SDS011;7476;49.404;11.152;2023-11-18T06:18:10;10.53;;;7.70;;
14768;SDS011;7476;49.404;11.152;2023-11-18T06:20:37;14.40;;;8.40;;
14768;SDS011;7476;49.404;11.152;2023-11-18T06:23:05;13.20;;;8.27;;
14768;SDS011;7476;49.404;11.152;2023-11-18T06:25:32;12.30;;;8.47;;
14768;SDS011;7476;49.404;11.152;2023-11-18T06:28:00;13.27;;;8.83;;
14768;SDS011;7476;49.404;11.152;2023-11-18T06:30:27;13.20;;;8.87;;
14768;SDS011;7476;49.404;11.152;2023-11-18T06:32:54;12.00;;;8.00;;
14768;SDS011;7476;49.404;11.152;2023-11-18T06:35:20;12.40;;;8.47;;
14768;SDS011;7476;49.404;11.152;2023-11-18T06:37:47;14.07;;;8.47;;
14768;SDS011;7476;49.404;11.152;2023-11-18T06:40:15;14.80;;;9.33;;
14768;SDS011;7476;49.404;11.152;2023-11-18T06:42:43;13.47;;;8.40;;
14768;SDS011;7476;49.404;11.152;2023-11-18T06:45:12;15.50;;;8.87;;
14768;SDS011;7476;49.404;11.152;2023-11-18T06:47:40;15.73;;;9.50;;
14768;SDS011;7476;49.404;11.152;2023-11-18T06:50:08;12.00;;;8.90;;
14768;SDS011;7476;49.404;11.152;2023-11-18T06:52:36;13.70;;;8.40;;
14768;SDS011;7476;49.404;11.152;2023-11-18T06:55:03;12.00;;;7.93;;
14768;SDS011;7476;49.404;11.152;2023-11-18T06:57:32;11.60;;;8.10;;
14768;SDS011;7476;49.404;11.152;2023-11-18T06:59:58;12.93;;;8.37;;
14768;SDS011;7476;49.404;11.152;2023-11-18T07:02:25;15.03;;;9.00;;
14768;SDS011;7476;49.404;11.152;2023-11-18T07:04:52;15.73;;;8.73;;
14768;SDS011;7476;49.404;11.152;2023-11-18T07:07:18;13.87;;;9.27;;
14768;SDS011;7476;49.404;11.152;2023-11-18T07:09:45;15.43;;;10.23;;
14768;SDS011;7476;49.404;11.152;2023-11-18T07:12:12;13.20;;;8.57;;
14768;SDS011;7476;49.404;11.152;2023-11-18T07:14:40;12.77;;;8.83;;
14768;SDS011;7476;49.404;11.152;2023-11-18T07:17:07;15.70;;;9.80;;
14768;SDS011;7476;49.404;11.152;2023-11-18T07:19:33;15.77;;;9.30;;
14768;SDS011;7476;49.404;11.152;2023-11-18T07:22:00;18.90;;;11.13;;
14768;SDS011;7476;49.404;11.152;2023-11-18T07:24:27;19.67;;;11.03;;
14768;SDS011;7476;49.404;11.152;2023-11-18T07:26:55;19.43;;;10.90;;
14768;SDS011;7476;49.404;11.152;2023-11-18T07:29:21;16.00;;;9.47;;
14768;SDS011;7476;49.404;11.152;2023-11-18T07:31:50;15.90;;;10.93;;
14768;SDS011;7476;49.404;11.152;2023-11-18T07:34:19;18.53;;;11.17;;
14768;SDS011;7476;49.404;11.152;2023-11-18T07:36:46;21.63;;;11.57;;
14768;SDS011;7476;49.404;11.152;2023-11-18T07:39:13;18.27;;;11.07;;
14768;SDS011;7476;49.404;11.152;2023-11-18T07:41:45;22.40;;;12.03;;
14768;SDS011;7476;49.404;11.152;2023-11-18T07:44:12;22.33;;;13.27;;
14768;SDS011;7476;49.404;11.152;2023-11-18T07:46:40;21.30;;;12.70;;
14768;SDS011;7476;49.404;11.152;2023-11-18T07:49:09;20.87;;;12.30;;
14768;SDS011;7476;49.404;11.152;2023-11-18T07:51:35;19.37;;;12.13;;
14768;SDS011;7476;49.404;11.152;2023-11-18T07:54:02;22.27;;;12.93;;
14768;SDS011;7476;49.404;11.152;2023-11-18T07:56:29;20.90;;;11.80;;
14768;SDS011;7476;49.404;11.152;2023-11-18T07:58:57;20.07;;;12.30;;
14768;SDS011;7476;49.404;11.152;2023-11-18T08:01:23;20.33;;;11.43;;
14768;SDS011;7476;49.404;11.152;2023-11-18T08:03:51;19.70;;;12.20;;
14768;SDS011;7476;49.404;11.152;2023-11-18T08:06:20;18.00;;;11.50;;
14768;SDS011;7476;49.404;11.152;2023-11-18T08:08:50;23.60;;;12.57;;
14768;SDS011;7476;49.404;11.152;2023-11-18T08:11:18;17.93;;;12.83;;
14768;SDS011;7476;49.404;11.152;2023-11-18T08:13:45;20.23;;;12.97;;
14768;SDS011;7476;49.404;11.152;2023-11-18T08:16:12;21.40;;;12.37;;
14768;SDS011;7476;49.404;11.152;2023-11-18T08:18:39;20.60;;;12.17;;
14768;SDS011;7476;49.404;11.152;2023-11-18T08:21:06;18.67;;;11.83;;
14768;SDS011;7476;49.404;11.152;2023-11-18T08:23:34;17.27;;;10.87;;
14768;SDS011;7476;49.404;11.152;2023-11-18T08:26:00;16.53;;;11.23;;
14768;SDS011;7476;49.404;11.152;2023-11-18T08:28:28;17.17;;;11.67;;
14768;SDS011;7476;49.404;11.152;2023-11-18T08:30:55;18.20;;;12.10;;
14768;SDS011;7476;49.404;11.152;2023-11-18T08:33:22;19.20;;;12.33;;
14768;SDS011;7476;49.404;11.152;2023-11-18T08:35:49;16.00;;;11.07;;
14768;SDS011;7476;49.404;11.152;2023-11-18T08:38:15;16.77;;;12.13;;
14768;SDS011;7476;49.404;11.152;2023-11-18T08:40:44;19.30;;;12.47;;
14768;SDS011;7476;49.404;11.152;2023-11-18T08:43:13;16.17;;;11.43;;
14768;SDS011;7476;49.404;11.152;2023-11-18T08:45:41;19.03;;;11.83;;
14768;SDS011;7476;49.404;11.152;2023-11-18T08:48:08;17.00;;;11.80;;
14768;SDS011;7476;49.404;11.152;2023-11-18T08:50:36;17.13;;;11.60;;
14768;SDS011;7476;49.404;11.152;2023-11-18T08:53:04;19.37;;;12.70;;
14768;SDS011;7476;49.404;11.152;2023-11-18T08:55:34;16.73;;;11.73;;
14768;SDS011;7476;49.404;11.152;2023-11-18T08:58:17;18.57;;;12.27;;
14768;SDS011;7476;49.404;11.152;2023-11-18T09:00:47;17.83;;;13.17;;
14768;SDS011;7476;49.404;11.152;2023-11-18T09:03:18;20.07;;;12.97;;
14768;SDS011;7476;49.404;11.152;2023-11-18T09:05:50;17.80;;;12.77;;
14768;SDS011;7476;49.404;11.152;2023-11-18T09:08:24;18.33;;;12.07;;
14768;SDS011;7476;49.404;11.152;2023-11-18T09:10:54;19.00;;;12.47;;
14768;SDS011;7476;49.404;11.152;2023-11-18T09:13:23;17.50;;;12.07;;
14768;SDS011;7476;49.404;11.152;2023-11-18T09:15:53;17.73;;;12.93;;
14768;SDS011;7476;49.404;11.152;2023-11-18T09:18:21;19.83;;;12.90;;
14768;SDS011;7476;49.404;11.152;2023-11-18T09:20:47;18.70;;;12.47;;
14768;SDS011;7476;49.404;11.152;2023-11-18T09:23:14;17.60;;;12.07;;
14768;SDS011;7476;49.404;11.152;2023-11-18T09:25:41;16.07;;;12.20;;
14768;SDS011;7476;49.404;11.152;2023-11-18T09:28:11;15.93;;;12.00;;
14768;SDS011;7476;49.404;11.152;2023-11-18T09:30:41;15.80;;;11.70;;
14768;SDS011;7476;49.404;11.152;2023-11-18T09:33:17;15.37;;;11.03;;
14768;SDS011;7476;49.404;11.152;2023-11-18T09:35:53;18.13;;;11.60;;
14768;SDS011;7476;49.404;11.152;2023-11-18T09:38:23;15.77;;;11.50;;
14768;SDS011;7476;49.404;11.152;2023-11-18T09:40:52;14.40;;;10.93;;
14768;SDS011;7476;49.404;11.152;2023-11-18T09:43:20;15.80;;;11.03;;
14768;SDS011;7476;49.404;11.152;2023-11-18T09:45:51;14.97;;;11.27;;
14768;SDS011;7476;49.404;11.152;2023-11-18T09:48:21;14.17;;;10.27;;
14768;SDS011;7476;49.404;11.152;2023-11-18T09:50:50;13.20;;;10.00;;
14768;SDS011;7476;49.404;11.152;2023-11-18T09:53:19;15.83;;;11.37;;
14768;SDS011;7476;49.404;11.152;2023-11-18T09:55:52;12.40;;;9.77;;
14768;SDS011;7476;49.404;11.152;2023-11-18T09:58:25;15.03;;;10.27;;
14768;SDS011;7476;49.404;11.152;2023-11-18T10:01:03;13.03;;;9.90;;
14768;SDS011;7476;49.404;11.152;2023-11-18T10:03:30;11.37;;;8.87;;
14768;SDS011;7476;49.404;11.152;2023-11-18T10:05:56;13.00;;;9.60;;
14768;SDS011;7476;49.404;11.152;2023-11-18T10:08:29;12.30;;;9.10;;
14768;SDS011;7476;49.404;11.152;2023-11-18T10:10:56;12.73;;;9.33;;
14768;SDS011;7476;49.404;11.152;2023-11-18T10:13:30;10.90;;;8.83;;
14768;SDS011;7476;49.404;11.152;2023-11-18T10:16:00;13.03;;;8.73;;
14768;SDS011;7476;49.404;11.152;2023-11-18T10:18:30;10.40;;;9.00;;
14768;SDS011;7476;49.404;11.152;2023-11-18T10:21:01;11.83;;;9.30;;
14768;SDS011;7476;49.404;11.152;2023-11-18T10:23:33;9.53;;;8.07;;
14768;SDS011;7476;49.404;11.152;2023-11-18T10:26:02;10.97;;;9.03;;
14768;SDS011;7476;49.404;11.152;2023-11-18T10:28:31;10.77;;;8.10;;
14768;SDS011;7476;49.404;11.152;2023-11-18T10:30:58;9.53;;;8.50;;
14768;SDS011;7476;49.404;11.152;2023-11-18T10:33:29;10.10;;;8.57;;
14768;SDS011;7476;49.404;11.152;2023-11-18T10:35:57;9.53;;;8.17;;
14768;SDS011;7476;49.404;11.152;2023-11-18T10:38:28;9.53;;;8.33;;
14768;SDS011;7476;49.404;11.152;2023-11-18T10:40:55;9.00;;;7.97;;
14768;SDS011;7476;49.404;11.152;2023-11-18T10:43:23;10.33;;;8.07;;
14768;SDS011;7476;49.404;11.152;2023-11-18T10:45:53;9.17;;;7.97;;
14768;SDS011;7476;49.404;11.152;2023-11-18T10:48:37;9.77;;;8.17;;
14768;SDS011;7476;49.404;11.152;2023-11-18T10:51:06;9.53;;;8.17;;
14768;SDS011;7476;49.404;11.152;2023-11-18T10:53:34;9.43;;;8.07;;
14768;SDS011;7476;49.404;11.152;2023-11-18T10:56:02;11.27;;;8.77;;
14768;SDS011;7476;49.404;11.152;2023-11-18T10:58:34;11.03;;;8.70;;
14768;SDS011;7476;49.404;11.152;2023-11-18T11:01:01;11.67;;;8.90;;
14768;SDS011;7476;49.404;11.152;2023-11-18T11:03:30;10.93;;;8.93;;
14768;SDS011;7476;49.404;11.152;2023-11-18T11:06:02;10.30;;;8.37;;
14768;SDS011;7476;49.404;11.152;2023-11-18T11:08:43;12.43;;;8.70;;
14768;SDS011;7476;49.404;11.152;2023-11-18T11:11:09;10.23;;;8.70;;
14768;SDS011;7476;49.404;11.152;2023-11-18T11:13:41;10.63;;;9.17;;
14768;SDS011;7476;49.404;11.152;2023-11-18T11:16:09;10.37;;;9.23;;
14768;SDS011;7476;49.404;11.152;2023-11-18T11:18:40;9.70;;;8.57;;
14768;SDS011;7476;49.404;11.152;2023-11-18T11:21:18;10.37;;;8.73;;
14768;SDS011;7476;49.404;11.152;2023-11-18T11:23:49;11.37;;;8.33;;
14768;SDS011;7476;49.404;11.152;2023-11-18T11:26:26;9.60;;;8.60;;
14768;SDS011;7476;49.404;11.152;2023-11-18T11:29:07;12.60;;;9.10;;
14768;SDS011;7476;49.404;11.152;2023-11-18T11:31:43;10.47;;;8.30;;
14768;SDS011;7476;49.404;11.152;2023-11-18T11:34:16;9.37;;;8.37;;
14768;SDS011;7476;49.404;11.152;2023-11-18T11:36:47;9.20;;;8.07;;
14768;SDS011;7476;49.404;11.152;2023-11-18T11:39:16;8.67;;;7.63;;
14768;SDS011;7476;49.404;11.152;2023-11-18T11:41:50;9.77;;;7.80;;
14768;SDS011;7476;49.404;11.152;2023-11-18T11:44:19;9.00;;;8.07;;
14768;SDS011;7476;49.404;11.152;2023-11-18T11:46:50;8.30;;;7.47;;
14768;SDS011;7476;49.404;11.152;2023-11-18T11:49:19;9.23;;;8.23;;
14768;SDS011;7476;49.404;11.152;2023-11-18T11:51:54;8.47;;;7.07;;
14768;SDS011;7476;49.404;11.152;2023-11-18T11:54:30;8.60;;;7.40;;
14768;SDS011;7476;49.404;11.152;2023-11-18T11:57:02;9.53;;;7.50;;
14768;SDS011;7476;49.404;11.152;2023-11-18T12:02:22;8.73;;;7.07;;
14768;SDS011;7476;49.404;11.152;2023-11-18T12:04:54;7.17;;;6.47;;
14768;SDS011;7476;49.404;11.152;2023-11-18T12:07:25;7.93;;;6.70;;
14768;SDS011;7476;49.404;11.152;2023-11-18T12:09:55;10.73;;;6.70;;
14768;SDS011;7476;49.404;11.152;2023-11-18T12:12:23;7.20;;;6.50;;
14768;SDS011;7476;49.404;11.152;2023-11-18T12:14:51;7.63;;;6.53;;
14768;SDS011;7476;49.404;11.152;2023-11-18T12:17:21;7.87;;;6.20;;
14768;SDS011;7476;49.404;11.152;2023-11-18T12:19:49;10.23;;;6.50;;
14768;SDS011;7476;49.404;11.152;2023-11-18T12:22:23;6.63;;;5.90;;
14768;SDS011;7476;49.404;11.152;2023-11-18T12:28:07;6.77;;;6.07;;
14768;SDS011;7476;49.404;11.152;2023-11-18T12:30:38;5.87;;;4.93;;
14768;SDS011;7476;49.404;11.152;2023-11-18T12:33:08;6.20;;;5.40;;
14768;SDS011;7476;49.404;11.152;2023-11-18T12:35:37;5.73;;;5.00;;
14768;SDS011;7476;49.404;11.152;2023-11-18T12:38:23;5.70;;;5.10;;
14768;SDS011;7476;49.404;11.152;2023-11-18T12:41:12;6.60;;;5.47;;
14768;SDS011;7476;49.404;11.152;2023-11-18T12:43:56;6.10;;;5.00;;
14768;SDS011;7476;49.404;11.152;2023-11-18T12:46:47;5.30;;;4.80;;
14768;SDS011;7476;49.404;11.152;2023-11-18T12:49:20;4.87;;;4.17;;
14768;SDS011;7476;49.404;11.152;2023-11-18T12:51:49;4.57;;;3.57;;
14768;SDS011;7476;49.404;11.152;2023-11-18T12:54:18;4.47;;;3.87;;
14768;SDS011;7476;49.404;11.152;2023-11-18T12:56:46;4.57;;;4.03;;
14768;SDS011;7476;49.404;11.152;2023-11-18T12:59:15;5.67;;;3.57;;
14768;SDS011;7476;49.404;11.152;2023-11-18T13:01:43;4.23;;;3.20;;
14768;SDS011;7476;49.404;11.152;2023-11-18T13:04:16;3.93;;;2.87;;
14768;SDS011;7476;49.404;11.152;2023-11-18T13:06:44;4.60;;;3.07;;
14768;SDS011;7476;49.404;11.152;2023-11-18T13:09:11;3.13;;;2.77;;
14768;SDS011;7476;49.404;11.152;2023-11-18T13:11:51;3.40;;;3.07;;
14768;SDS011;7476;49.404;11.152;2023-11-18T13:14:21;4.63;;;4.07;;
14768;SDS011;7476;49.404;11.152;2023-11-18T13:16:50;3.73;;;3.17;;
14768;SDS011;7476;49.404;11.152;2023-11-18T13:19:23;4.87;;;3.70;;
14768;SDS011;7476;49.404;11.152;2023-11-18T13:21:50;5.73;;;3.40;;
14768;SDS011;7476;49.404;11.152;2023-11-18T13:24:17;3.50;;;3.20;;
14768;SDS011;7476;49.404;11.152;2023-11-18T13:26:44;3.83;;;3.00;;
14768;SDS011;7476;49.404;11.152;2023-11-18T13:29:12;4.33;;;2.87;;
14768;SDS011;7476;49.404;11.152;2023-11-18T13:31:41;3.10;;;2.80;;
14768;SDS011;7476;49.404;11.152;2023-11-18T13:34:08;4.33;;;3.03;;
14768;SDS011;7476;49.404;11.152;2023-11-18T13:36:35;3.23;;;2.93;;
14768;SDS011;7476;49.404;11.152;2023-11-18T13:39:03;3.70;;;3.00;;
14768;SDS011;7476;49.404;11.152;2023-11-18T13:41:32;3.77;;;3.00;;
14768;SDS011;7476;49.404;11.152;2023-11-18T13:43:59;3.53;;;3.10;;
14768;SDS011;7476;49.404;11.152;2023-11-18T13:46:27;3.80;;;3.20;;
14768;SDS011;7476;49.404;11.152;2023-11-18T13:48:54;3.87;;;2.90;;
14768;SDS011;7476;49.404;11.152;2023-11-18T13:51:20;3.73;;;3.30;;
14768;SDS011;7476;49.404;11.152;2023-11-18T13:53:47;3.20;;;2.77;;
14768;SDS011;7476;49.404;11.152;2023-11-18T13:56:14;3.97;;;3.03;;
14768;SDS011;7476;49.404;11.152;2023-11-18T13:58:42;3.10;;;2.80;;
14768;SDS011;7476;49.404;11.152;2023-11-18T14:01:10;3.20;;;2.90;;
14768;SDS011;7476;49.404;11.152;2023-11-18T14:03:39;4.07;;;3.00;;
14768;SDS011;7476;49.404;11.152;2023-11-18T14:06:08;5.00;;;3.00;;
14768;SDS011;7476;49.404;11.152;2023-11-18T14:08:36;4.30;;;3.10;;
14768;SDS011;7476;49.404;11.152;2023-11-18T14:11:03;4.30;;;2.63;;
14768;SDS011;7476;49.404;11.152;2023-11-18T14:13:33;4.10;;;2.80;;
14768;SDS011;7476;49.404;11.152;2023-11-18T14:16:00;3.60;;;2.83;;
14768;SDS011;7476;49.404;11.152;2023-11-18T14:18:27;4.50;;;2.63;;
14768;SDS011;7476;49.404;11.152;2023-11-18T14:20:55;3.40;;;3.10;;
14768;SDS011;7476;49.404;11.152;2023-11-18T14:23:22;3.23;;;2.53;;
14768;SDS011;7476;49.404;11.152;2023-11-18T14:25:50;5.50;;;2.90;;
14768;SDS011;7476;49.404;11.152;2023-11-18T14:28:16;3.10;;;2.67;;
14768;SDS011;7476;49.404;11.152;2023-11-18T14:30:44;2.73;;;2.53;;
14768;SDS011;7476;49.404;11.152;2023-11-18T14:33:10;4.10;;;2.67;;
14768;SDS011;7476;49.404;11.152;2023-11-18T14:35:37;4.43;;;2.90;;
14768;SDS011;7476;49.404;11.152;2023-11-18T14:38:06;3.03;;;2.40;;
14768;SDS011;7476;49.404;11.152;2023-11-18T14:40:33;3.33;;;2.77;;
14768;SDS011;7476;49.404;11.152;2023-11-18T14:43:00;3.53;;;2.40;;
14768;SDS011;7476;49.404;11.152;2023-11-18T14:45:27;2.73;;;2.33;;
14768;SDS011;7476;49.404;11.152;2023-11-18T14:47:53;3.90;;;2.40;;
14768;SDS011;7476;49.404;11.152;2023-11-18T14:50:21;2.83;;;2.50;;
14768;SDS011;7476;49.404;11.152;2023-11-18T14:52:49;2.63;;;2.40;;
14768;SDS011;7476;49.404;11.152;2023-11-18T14:55:18;5.37;;;2.60;;